createdAt,value
2023-03-22T00:02:16.573Z,11.19
2023-03-22T00:04:44.675Z,11.21
2023-03-22T00:07:12.846Z,11.22
2023-03-22T00:09:41.063Z,11.23
2023-03-22T00:12:09.257Z,11.23
2023-03-22T00:14:37.446Z,11.24
2023-03-22T00:17:05.953Z,11.26
2023-03-22T00:19:34.236Z,11.27
2023-03-22T00:22:03.696Z,11.28
2023-03-22T00:24:32.256Z,11.28
2023-03-22T00:27:01.114Z,11.30
2023-03-22T00:29:29.417Z,11.33
2023-03-22T00:31:58.500Z,11.35
2023-03-22T00:34:32.478Z,11.36
2023-03-22T00:37:01.500Z,11.37
2023-03-22T00:39:30.404Z,11.39
2023-03-22T00:41:58.475Z,11.41
2023-03-22T00:44:27.082Z,11.42
2023-03-22T00:46:55.551Z,11.45
2023-03-22T00:49:23.649Z,11.46
2023-03-22T00:51:51.797Z,11.50
2023-03-22T00:54:19.956Z,11.51
2023-03-22T00:56:49.998Z,11.53
2023-03-22T00:59:18.566Z,11.55
2023-03-22T01:01:47.217Z,11.56
2023-03-22T01:04:18.334Z,11.59
2023-03-22T01:06:47.356Z,11.60
2023-03-22T01:09:15.735Z,11.61
2023-03-22T01:11:45.806Z,11.63
2023-03-22T01:14:16.919Z,11.62
2023-03-22T01:16:45.510Z,11.62
2023-03-22T01:19:13.969Z,11.63
2023-03-22T01:21:42.232Z,11.62
2023-03-22T01:24:10.708Z,11.60
2023-03-22T01:26:39.107Z,11.60
2023-03-22T01:29:07.172Z,11.58
2023-03-22T01:31:35.370Z,11.58
2023-03-22T01:34:04.048Z,11.58
2023-03-22T01:36:33.012Z,11.56
2023-03-22T01:39:01.116Z,11.54
2023-03-22T01:41:34.911Z,11.50
2023-03-22T01:44:13.403Z,11.48
2023-03-22T01:46:43.362Z,11.45
2023-03-22T01:49:24.452Z,11.44
2023-03-22T01:51:55.363Z,11.43
2023-03-22T01:54:50.596Z,11.41
2023-03-22T01:57:29.435Z,11.40
2023-03-22T01:59:58.393Z,11.41
2023-03-22T02:02:44.050Z,11.41
2023-03-22T02:05:22.526Z,11.40
2023-03-22T02:07:53.149Z,11.41
2023-03-22T02:10:26.422Z,11.42
2023-03-22T02:13:24.487Z,11.43
2023-03-22T02:16:16.311Z,11.46
2023-03-22T02:19:19.600Z,11.47
2023-03-22T02:22:16.610Z,11.49
2023-03-22T02:25:09.822Z,11.50
2023-03-22T02:28:15.157Z,11.52
2023-03-22T02:31:00.205Z,11.54
2023-03-22T02:33:57.479Z,11.56
2023-03-22T02:36:59.710Z,11.56
2023-03-22T02:39:31.807Z,11.58
2023-03-22T02:42:08.991Z,11.60
2023-03-22T02:44:46.909Z,11.63
2023-03-22T02:47:39.900Z,11.63
2023-03-22T02:50:14.405Z,11.64
2023-03-22T02:52:54.085Z,11.64
2023-03-22T02:55:59.465Z,11.65
2023-03-22T02:58:33.722Z,11.66
2023-03-22T03:01:07.383Z,11.67
2023-03-22T03:03:38.067Z,11.69
2023-03-22T03:06:13.658Z,11.70
2023-03-22T03:08:43.597Z,11.70
2023-03-22T03:11:12.556Z,11.70
2023-03-22T03:13:40.703Z,11.71
2023-03-22T03:16:17.594Z,11.71
2023-03-22T03:19:07.961Z,11.71
2023-03-22T03:21:58.868Z,11.71
2023-03-22T03:24:33.546Z,11.70
2023-03-22T03:27:14.673Z,11.69
2023-03-22T03:29:51.488Z,11.69
2023-03-22T03:32:26.902Z,11.69
2023-03-22T03:35:18.097Z,11.69
2023-03-22T03:38:01.690Z,11.67
2023-03-22T03:40:37.831Z,11.64
2023-03-22T03:43:07.194Z,11.63
2023-03-22T03:45:37.532Z,11.62
2023-03-22T03:48:12.025Z,11.60
2023-03-22T03:50:40.556Z,11.58
2023-03-22T03:53:10.081Z,11.58
2023-03-22T03:55:38.194Z,11.56
2023-03-22T03:58:09.123Z,11.54
2023-03-22T04:00:38.727Z,11.53
2023-03-22T04:03:30.385Z,11.52
2023-03-22T04:06:04.740Z,11.49
2023-03-22T04:08:36.269Z,11.50
2023-03-22T04:11:05.206Z,11.49
2023-03-22T04:13:33.877Z,11.50
2023-03-22T04:16:04.288Z,11.48
2023-03-22T04:18:35.316Z,11.47
2023-03-22T04:21:05.805Z,11.46
2023-03-22T04:23:41.146Z,11.43
2023-03-22T04:26:09.454Z,11.42
2023-03-22T04:28:46.003Z,11.40
2023-03-22T04:31:14.128Z,11.38
2023-03-22T04:33:54.947Z,11.36
2023-03-22T04:36:45.268Z,11.34
2023-03-22T04:39:22.081Z,11.33
2023-03-22T04:41:58.697Z,11.31
2023-03-22T04:44:27.780Z,11.31
2023-03-22T04:46:56.003Z,11.32
2023-03-22T04:49:24.199Z,11.31
2023-03-22T04:51:53.090Z,11.31
2023-03-22T04:54:27.667Z,11.31
2023-03-22T04:56:56.593Z,11.31
2023-03-22T04:59:25.244Z,11.31
2023-03-22T05:01:53.614Z,11.29
2023-03-22T05:04:27.334Z,11.29
2023-03-22T05:07:01.779Z,11.28
2023-03-22T05:09:38.172Z,11.26
2023-03-22T05:12:06.983Z,11.26
2023-03-22T05:14:42.780Z,11.27
2023-03-22T05:17:12.020Z,11.27
2023-03-22T05:19:40.802Z,11.26
2023-03-22T05:22:08.873Z,11.26
2023-03-22T05:24:43.052Z,11.26
2023-03-22T05:27:15.595Z,11.26
2023-03-22T05:29:46.904Z,11.26
2023-03-22T05:32:25.712Z,11.25
2023-03-22T05:34:56.334Z,11.26
2023-03-22T05:37:32.825Z,11.28
2023-03-22T05:40:01.880Z,11.30
2023-03-22T05:42:37.586Z,11.32
2023-03-22T05:45:14.696Z,11.34
2023-03-22T05:47:43.921Z,11.36
2023-03-22T05:50:18.176Z,11.40
2023-03-22T05:52:46.852Z,11.41
2023-03-22T05:55:23.337Z,11.42
2023-03-22T05:57:56.824Z,11.43
2023-03-22T06:00:25.864Z,11.44
2023-03-22T06:03:26.510Z,11.43
2023-03-22T06:06:10.834Z,11.43
2023-03-22T06:08:47.616Z,11.44
2023-03-22T06:11:15.707Z,11.46
2023-03-22T06:13:43.801Z,11.48
2023-03-22T06:16:12.272Z,11.52
2023-03-22T06:18:41.037Z,11.53
2023-03-22T06:21:12.102Z,11.56
2023-03-22T06:23:40.317Z,11.58
2023-03-22T06:26:11.543Z,11.60
2023-03-22T06:28:41.395Z,11.63
2023-03-22T06:31:10.856Z,11.65
2023-03-22T06:33:45.715Z,11.64
2023-03-22T06:36:49.215Z,11.64
2023-03-22T06:39:25.550Z,11.64
2023-03-22T06:41:54.428Z,11.64
2023-03-22T06:44:22.844Z,11.66
2023-03-22T06:46:54.177Z,11.66
2023-03-22T06:49:42.592Z,11.67
2023-03-22T06:52:15.483Z,11.68
2023-03-22T06:54:43.956Z,11.70
2023-03-22T06:57:12.309Z,11.70
2023-03-22T06:59:40.438Z,11.72
2023-03-22T07:02:11.974Z,11.73
2023-03-22T07:04:42.811Z,11.76
2023-03-22T07:07:11.645Z,11.79
2023-03-22T07:09:40.393Z,11.82
2023-03-22T07:12:09.970Z,11.87
2023-03-22T07:14:38.669Z,11.92
2023-03-22T07:17:25.385Z,11.95
2023-03-22T07:19:54.030Z,11.99
2023-03-22T07:22:24.932Z,12.01
2023-03-22T07:24:57.742Z,12.03
2023-03-22T07:27:27.574Z,12.05
2023-03-22T07:29:56.328Z,12.08
2023-03-22T07:32:24.570Z,12.12
2023-03-22T07:35:07.860Z,12.14
2023-03-22T07:37:36.296Z,12.16
2023-03-22T07:40:07.039Z,12.20
2023-03-22T07:42:35.600Z,12.22
2023-03-22T07:45:22.828Z,12.24
2023-03-22T07:48:12.013Z,12.25
2023-03-22T07:50:56.544Z,12.25
2023-03-22T07:53:25.907Z,12.26
2023-03-22T07:55:54.296Z,12.28
2023-03-22T07:58:22.578Z,12.30
2023-03-22T08:00:50.799Z,12.33
2023-03-22T08:03:37.867Z,12.34
2023-03-22T08:06:16.525Z,12.37
2023-03-22T08:08:44.688Z,12.40
2023-03-22T08:11:12.855Z,12.43
2023-03-22T08:13:41.213Z,12.46
2023-03-22T08:16:12.706Z,12.48
2023-03-22T08:18:43.027Z,12.53
2023-03-22T08:21:12.780Z,12.57
2023-03-22T08:23:42.518Z,12.59
2023-03-22T08:26:33.472Z,12.62
2023-03-22T08:29:09.704Z,12.65
2023-03-22T08:31:38.405Z,12.69
2023-03-22T08:34:06.601Z,12.74
2023-03-22T08:36:34.850Z,12.77
2023-03-22T08:39:05.501Z,12.80
2023-03-22T08:41:41.506Z,12.85
2023-03-22T08:44:10.239Z,12.89
2023-03-22T08:46:38.552Z,12.94
2023-03-22T08:49:07.400Z,12.97
2023-03-22T08:51:48.360Z,13.01
2023-03-22T08:54:19.704Z,13.05
2023-03-22T08:56:54.626Z,13.06
2023-03-22T08:59:52.360Z,13.10
2023-03-22T09:02:28.203Z,13.13
2023-03-22T09:04:56.890Z,13.17
2023-03-22T09:07:25.432Z,13.18
2023-03-22T09:10:20.013Z,13.18
2023-03-22T09:12:49.687Z,13.18
2023-03-22T09:15:18.050Z,13.21
2023-03-22T09:17:48.912Z,13.24
2023-03-22T09:20:17.366Z,13.28
2023-03-22T09:22:47.442Z,13.31
2023-03-22T09:25:20.802Z,13.33
2023-03-22T09:27:49.845Z,13.37
2023-03-22T09:30:18.004Z,13.42
2023-03-22T09:32:46.181Z,13.45
2023-03-22T09:35:16.515Z,13.51
2023-03-22T09:37:59.020Z,13.57
2023-03-22T09:40:31.478Z,13.62
2023-03-22T09:43:04.779Z,13.67
2023-03-22T09:45:43.041Z,13.73
2023-03-22T09:48:16.908Z,13.76
2023-03-22T09:50:48.717Z,13.81
2023-03-22T09:53:18.675Z,13.85
2023-03-22T09:55:55.873Z,13.88
2023-03-22T09:58:23.928Z,13.90
2023-03-22T10:00:56.941Z,13.94
2023-03-22T10:03:45.751Z,13.94
2023-03-22T10:06:23.027Z,13.94
2023-03-22T10:09:10.120Z,13.97
2023-03-22T10:11:51.656Z,14.04
2023-03-22T10:14:27.175Z,14.09
2023-03-22T10:16:58.262Z,14.16
2023-03-22T10:19:33.613Z,14.21
2023-03-22T10:22:04.117Z,14.28
2023-03-22T10:24:35.746Z,14.37
2023-03-22T10:27:04.848Z,14.46
2023-03-22T10:29:38.113Z,14.57
2023-03-22T10:32:16.885Z,14.65
2023-03-22T10:34:46.611Z,14.71
2023-03-22T10:37:22.442Z,14.77
2023-03-22T10:39:56.125Z,14.80
2023-03-22T10:42:27.915Z,14.82
2023-03-22T10:45:13.652Z,14.85
2023-03-22T10:47:48.807Z,14.91
2023-03-22T10:50:39.405Z,14.98
2023-03-22T10:53:43.293Z,15.04
2023-03-22T10:56:13.985Z,15.07
2023-03-22T10:58:42.335Z,15.14
2023-03-22T11:01:13.535Z,15.22
2023-03-22T11:03:44.322Z,15.21
2023-03-22T11:06:13.605Z,14.96
2023-03-22T11:08:47.895Z,14.71
2023-03-22T11:11:36.381Z,14.52
2023-03-22T11:14:16.065Z,14.38
2023-03-22T11:17:02.119Z,14.28
2023-03-22T11:19:37.376Z,14.21
2023-03-22T11:22:25.722Z,14.17
2023-03-22T11:24:56.446Z,14.13
2023-03-22T11:27:28.772Z,14.14
2023-03-22T11:30:08.040Z,14.15
2023-03-22T11:32:38.836Z,14.15
2023-03-22T11:35:15.873Z,14.16
2023-03-22T11:37:46.833Z,14.25
2023-03-22T11:40:18.415Z,14.57
2023-03-22T11:42:47.857Z,14.91
2023-03-22T11:45:31.197Z,15.17
2023-03-22T11:48:07.685Z,15.36
2023-03-22T11:50:38.502Z,15.38
2023-03-22T11:53:12.101Z,15.16
2023-03-22T11:55:42.664Z,14.95
2023-03-22T11:58:26.382Z,14.80
2023-03-22T12:01:01.527Z,14.72
2023-03-22T12:03:39.880Z,14.65
2023-03-22T12:06:22.176Z,14.63
2023-03-22T12:08:56.737Z,14.64
2023-03-22T12:11:34.724Z,14.67
2023-03-22T12:14:05.498Z,14.69
2023-03-22T12:16:45.803Z,14.71
2023-03-22T12:19:23.632Z,14.78
2023-03-22T12:21:52.896Z,14.84
2023-03-22T12:24:31.051Z,14.91
2023-03-22T12:27:10.301Z,14.95
2023-03-22T12:29:54.219Z,14.96
2023-03-22T12:32:28.600Z,14.93
2023-03-22T12:35:09.268Z,14.88
2023-03-22T12:37:48.337Z,14.81
2023-03-22T12:40:32.243Z,14.72
2023-03-22T12:43:25.954Z,14.62
2023-03-22T12:45:59.746Z,14.53
2023-03-22T12:48:28.016Z,14.47
2023-03-22T12:51:06.341Z,14.42
2023-03-22T12:53:43.010Z,14.38
2023-03-22T12:56:26.836Z,14.34
2023-03-22T12:59:01.530Z,14.29
2023-03-22T13:01:39.867Z,14.25
2023-03-22T13:04:31.773Z,14.25
2023-03-22T13:07:20.453Z,14.54
2023-03-22T13:09:50.754Z,14.83
2023-03-22T13:12:18.842Z,15.02
2023-03-22T13:14:53.200Z,15.15
2023-03-22T13:17:24.609Z,15.27
2023-03-22T13:20:21.863Z,15.36
2023-03-22T13:22:50.152Z,15.44
2023-03-22T13:25:19.286Z,15.49
2023-03-22T13:28:21.042Z,15.53
2023-03-22T13:30:58.649Z,15.57
2023-03-22T13:33:28.026Z,15.54
2023-03-22T13:35:59.500Z,15.23
2023-03-22T13:38:30.456Z,14.94
2023-03-22T13:41:04.725Z,14.70
2023-03-22T13:43:39.038Z,14.49
2023-03-22T13:46:22.210Z,14.33
2023-03-22T13:48:53.221Z,14.21
2023-03-22T13:51:29.790Z,14.19
2023-03-22T13:54:18.120Z,14.43
2023-03-22T13:57:01.509Z,14.72
2023-03-22T14:00:09.571Z,14.97
2023-03-22T14:02:42.242Z,15.17
2023-03-22T14:05:18.902Z,15.31
2023-03-22T14:07:52.303Z,15.41
2023-03-22T14:10:22.704Z,15.48
2023-03-22T14:12:55.777Z,15.53
2023-03-22T14:15:28.860Z,15.57
2023-03-22T14:17:57.062Z,15.56
2023-03-22T14:20:27.129Z,15.27
